Time;durP1;ratioP1;P1;durP2;ratioP2;P2;SDS_P1;SDS_P2;PMS_P1;PMS_P2;Temp;Humidity;BMP_temperature;BMP_pressure;BME280_temperature;BME280_humidity;BME280_pressure;Samples;Min_cycle;Max_cycle;Signal;HPM_P1;HPM_P2
2022/01/20 00:00:53;;;;;;;38.30;21.43;;;;;;;1.05;100.00;97135.25;5062012;28;20237;-84
2022/01/20 00:03:23;;;;;;;43.80;22.73;;;;;;;1.02;100.00;97140.06;5053418;28;20479;-84
2022/01/20 00:06:51;;;;;;;38.73;21.97;;;;;;;0.96;100.00;97135.31;5041893;28;20230;-84
2022/01/20 00:09:24;;;;;;;39.77;21.37;;;;;;;0.89;100.00;97121.81;5048230;28;20224;-83
2022/01/20 00:23:40;;;;;;;43.60;23.23;;;;;;;0.89;100.00;97129.78;5029114;28;20237;-84
2022/01/20 00:26:09;;;;;;;41.60;23.03;;;;;;;0.91;100.00;97126.97;5045190;28;20232;-83
2022/01/20 00:28:42;;;;;;;43.40;23.20;;;;;;;0.95;100.00;97128.34;5056941;28;20299;-84
2022/01/20 00:31:29;;;;;;;42.17;23.50;;;;;;;0.99;100.00;97135.03;5043231;28;20210;-83
2022/01/20 00:34:09;;;;;;;43.93;23.80;;;;;;;0.98;100.00;97133.34;5059528;28;20200;-85
2022/01/20 00:39:21;;;;;;;38.90;22.43;;;;;;;1.01;100.00;97135.72;5058673;28;20200;-84
2022/01/20 00:41:48;;;;;;;36.80;20.83;;;;;;;1.01;100.00;97139.22;5049314;28;20220;-84
2022/01/20 00:44:15;;;;;;;41.90;23.80;;;;;;;0.97;100.00;97131.69;5058581;28;20270;-84
2022/01/20 00:46:44;;;;;;;42.10;22.60;;;;;;;1.02;100.00;97137.41;5045627;28;20209;-83
2022/01/20 00:49:11;;;;;;;42.03;21.97;;;;;;;1.03;100.00;97147.03;5045980;28;20352;-85
2022/01/20 00:51:38;;;;;;;43.00;23.13;;;;;;;1.01;100.00;97136.56;5066490;28;20225;-85
2022/01/20 00:54:05;;;;;;;41.33;22.53;;;;;;;1.07;100.00;97143.09;5058413;28;20266;-84
2022/01/20 00:56:32;;;;;;;37.90;21.60;;;;;;;1.09;100.00;97139.28;5037702;28;20205;-86
2022/01/20 00:58:59;;;;;;;41.33;22.90;;;;;;;1.03;100.00;97139.03;5067232;28;20213;-84
2022/01/20 01:01:27;;;;;;;38.07;22.30;;;;;;;1.05;100.00;97147.72;5058733;28;20236;-85
2022/01/20 01:03:55;;;;;;;39.53;22.60;;;;;;;1.07;100.00;97149.25;5051947;28;20204;-84
2022/01/20 01:06:35;;;;;;;37.93;22.13;;;;;;;0.99;100.00;97145.66;5060678;28;20213;-84
2022/01/20 01:09:03;;;;;;;38.93;21.90;;;;;;;0.99;100.00;97143.00;5051044;28;20217;-84
2022/01/20 01:11:30;;;;;;;42.30;22.50;;;;;;;1.01;100.00;97159.66;5046074;28;20244;-83
2022/01/20 01:13:58;;;;;;;41.93;23.60;;;;;;;0.99;100.00;97154.47;5065110;28;20212;-85
2022/01/20 01:16:36;;;;;;;37.53;20.60;;;;;;;0.99;100.00;97167.78;5055795;28;20209;-85
2022/01/20 01:22:03;;;;;;;34.63;20.37;;;;;;;1.04;100.00;97164.66;5063117;28;20208;-84
2022/01/20 01:24:31;;;;;;;35.90;20.00;;;;;;;1.08;100.00;97163.38;5058030;28;20296;-85
2022/01/20 01:26:58;;;;;;;35.30;20.50;;;;;;;1.08;100.00;97164.22;5062163;28;20198;-84
2022/01/20 01:29:44;;;;;;;36.47;19.63;;;;;;;1.10;100.00;97164.91;5056767;28;20216;-85
2022/01/20 01:32:14;;;;;;;33.40;18.13;;;;;;;1.16;100.00;97167.94;5062680;28;20225;-84
2022/01/20 01:34:48;;;;;;;31.77;17.10;;;;;;;1.19;100.00;97178.28;5045991;28;20293;-85
2022/01/20 01:37:35;;;;;;;29.60;17.53;;;;;;;1.21;100.00;97169.16;5052786;28;20225;-85
2022/01/20 01:40:06;;;;;;;27.40;16.10;;;;;;;1.24;100.00;97171.50;5058110;28;20211;-86
2022/01/20 01:42:40;;;;;;;27.23;15.33;;;;;;;1.27;100.00;97173.03;5074423;28;20197;-84
2022/01/20 01:45:10;;;;;;;27.27;15.27;;;;;;;1.31;100.00;97179.72;5045234;28;20259;-84
2022/01/20 01:47:37;;;;;;;26.73;14.57;;;;;;;1.28;100.00;97172.88;5065652;28;20318;-84
2022/01/20 01:50:10;;;;;;;23.87;13.93;;;;;;;1.44;100.00;97181.03;5047901;28;20199;-85
2022/01/20 01:52:37;;;;;;;23.87;14.40;;;;;;;1.48;100.00;97169.06;5037718;28;20273;-84
2022/01/20 01:55:05;;;;;;;18.20;11.43;;;;;;;1.61;100.00;97175.81;5045280;28;20205;-86
2022/01/20 01:57:33;;;;;;;17.73;11.27;;;;;;;1.63;100.00;97173.81;5059620;28;20198;-85
2022/01/20 02:00:00;;;;;;;18.73;10.90;;;;;;;1.70;100.00;97164.25;5064893;28;20220;-84
2022/01/20 02:02:45;;;;;;;21.20;11.77;;;;;;;1.74;100.00;97173.59;5034988;28;20206;-85
2022/01/20 02:05:23;;;;;;;21.43;12.43;;;;;;;1.68;100.00;97180.38;5056379;28;20217;-85
2022/01/20 02:19:08;;;;;;;22.83;13.20;;;;;;;1.47;100.00;97172.72;5067127;28;20225;-84
2022/01/20 02:21:50;;;;;;;21.33;12.40;;;;;;;1.49;100.00;97176.06;5049289;28;20205;-83
2022/01/20 02:24:21;;;;;;;21.83;12.23;;;;;;;1.47;100.00;97161.22;5055984;28;20208;-85
2022/01/20 02:26:48;;;;;;;20.47;12.37;;;;;;;1.51;100.00;97152.78;5061735;28;20219;-84
2022/01/20 02:29:21;;;;;;;22.17;12.10;;;;;;;1.50;100.00;97143.13;5043481;28;20197;-85
2022/01/20 02:31:53;;;;;;;19.80;12.43;;;;;;;1.47;100.00;97147.91;5065645;28;20262;-85
2022/01/20 02:34:21;;;;;;;19.63;12.17;;;;;;;1.39;100.00;97122.06;5053040;28;20203;-85
2022/01/20 02:36:50;;;;;;;23.77;12.17;;;;;;;1.39;100.00;97132.72;5061420;28;20204;-84
2022/01/20 02:39:43;;;;;;;20.73;12.87;;;;;;;1.41;100.00;97128.09;5053803;28;20261;-84
2022/01/20 02:45:02;;;;;;;19.90;11.67;;;;;;;1.44;100.00;97124.28;5054731;28;20245;-84
2022/01/20 02:47:31;;;;;;;21.43;11.97;;;;;;;1.47;100.00;97131.94;5041263;28;20210;-85
2022/01/20 02:49:59;;;;;;;21.20;12.33;;;;;;;1.46;100.00;97139.09;5046423;28;20296;-84
2022/01/20 02:52:28;;;;;;;18.70;11.50;;;;;;;1.50;100.00;97129.81;5060205;28;20225;-86
2022/01/20 02:54:57;;;;;;;18.90;11.63;;;;;;;1.41;100.00;97129.91;5060935;28;20201;-85
2022/01/20 02:57:25;;;;;;;22.87;12.40;;;;;;;1.41;100.00;97136.06;5050070;28;20206;-83
2022/01/20 02:59:53;;;;;;;21.63;12.60;;;;;;;1.36;100.00;97133.03;5067271;28;20201;-84
2022/01/20 03:02:20;;;;;;;19.93;11.33;;;;;;;1.34;100.00;97126.19;5048027;28;20268;-85
2022/01/20 03:04:49;;;;;;;20.57;12.50;;;;;;;1.29;100.00;97121.31;5052031;28;20205;-84
2022/01/20 03:07:24;;;;;;;22.70;12.40;;;;;;;1.26;100.00;97111.00;5035565;28;20251;-84
2022/01/20 03:09:53;;;;;;;24.87;12.73;;;;;;;1.26;100.00;97119.00;5054065;28;20238;-84
2022/01/20 03:12:20;;;;;;;19.50;11.77;;;;;;;1.24;100.00;97102.34;5059181;28;20353;-84
2022/01/20 03:14:47;;;;;;;22.60;12.27;;;;;;;1.28;100.00;97098.38;5058121;28;20209;-85
2022/01/20 03:17:15;;;;;;;20.73;11.87;;;;;;;1.26;100.00;97097.72;5048927;28;20207;-85
2022/01/20 03:19:43;;;;;;;21.07;12.17;;;;;;;1.23;100.00;97095.34;5039414;28;20212;-84
2022/01/20 03:22:11;;;;;;;20.70;12.37;;;;;;;1.18;100.00;97092.31;5055677;28;20214;-86
2022/01/20 03:24:38;;;;;;;22.13;12.50;;;;;;;1.21;100.00;97092.00;5064075;28;21511;-85
2022/01/20 03:27:07;;;;;;;23.57;12.67;;;;;;;1.24;100.00;97093.53;5056021;28;20207;-85
2022/01/20 03:29:34;;;;;;;25.30;13.20;;;;;;;1.21;100.00;97092.00;5050021;28;20210;-86
2022/01/20 03:32:02;;;;;;;21.00;12.77;;;;;;;1.18;100.00;97087.00;5058616;28;20209;-86
2022/01/20 03:34:29;;;;;;;24.43;13.53;;;;;;;1.20;100.00;97085.00;5054769;28;20217;-84
2022/01/20 03:37:03;;;;;;;24.53;13.30;;;;;;;1.18;100.00;97081.69;5047445;28;20209;-84
2022/01/20 03:39:56;;;;;;;22.70;12.67;;;;;;;1.19;100.00;97094.00;5062086;28;20196;-86
2022/01/20 03:42:25;;;;;;;22.40;13.10;;;;;;;1.20;100.00;97095.66;5054101;28;20233;-84
2022/01/20 03:44:52;;;;;;;22.37;12.07;;;;;;;1.23;100.00;97102.50;5042376;28;20209;-85
2022/01/20 03:47:21;;;;;;;20.63;13.03;;;;;;;1.26;100.00;97104.84;5067663;28;20216;-84
2022/01/20 03:50:06;;;;;;;22.97;12.77;;;;;;;1.28;100.00;97111.66;5059282;28;20206;-85
2022/01/20 03:52:34;;;;;;;22.07;13.13;;;;;;;1.32;100.00;97115.72;5036667;28;20357;-85
2022/01/20 03:55:01;;;;;;;22.03;13.00;;;;;;;1.33;100.00;97101.41;5045861;28;20210;-84
2022/01/20 03:57:57;;;;;;;21.00;12.20;;;;;;;1.34;100.00;97096.94;5056365;28;20202;-84
2022/01/20 04:00:29;;;;;;;20.03;12.13;;;;;;;1.36;100.00;97105.59;5037180;28;20226;-84
2022/01/20 04:03:15;;;;;;;19.63;11.67;;;;;;;1.37;100.00;97112.56;5054452;28;20214;-85
2022/01/20 04:06:00;;;;;;;21.00;11.73;;;;;;;1.35;100.00;97104.75;5037242;28;20324;-84
2022/01/20 04:08:40;;;;;;;19.90;11.83;;;;;;;1.40;100.00;97109.63;5052478;28;20202;-85
2022/01/20 04:11:09;;;;;;;18.40;11.27;;;;;;;1.42;100.00;97118.28;5065055;28;20226;-84
2022/01/20 04:13:39;;;;;;;20.70;11.97;;;;;;;1.40;100.00;97115.78;5053538;28;20222;-85
2022/01/20 04:16:21;;;;;;;20.87;12.90;;;;;;;1.41;100.00;97122.78;5047509;28;20224;-84
2022/01/20 04:18:56;;;;;;;22.03;12.23;;;;;;;1.38;100.00;97116.91;5045384;28;20238;-85
2022/01/20 04:21:25;;;;;;;21.93;12.50;;;;;;;1.41;100.00;97116.59;5052454;28;20201;-85
2022/01/20 04:23:53;;;;;;;20.23;12.63;;;;;;;1.35;100.00;97115.41;5060489;28;20209;-85
2022/01/20 04:26:22;;;;;;;20.90;12.93;;;;;;;1.28;100.00;97109.00;5058409;28;20229;-85
2022/01/20 04:28:53;;;;;;;22.33;12.90;;;;;;;1.23;100.00;97110.47;5057688;28;20263;-85
2022/01/20 04:31:21;;;;;;;21.33;12.33;;;;;;;1.24;100.00;97123.63;5055421;28;20205;-83
2022/01/20 04:33:48;;;;;;;21.10;12.27;;;;;;;1.24;100.00;97118.31;5065832;28;20270;-84
2022/01/20 04:36:15;;;;;;;19.67;12.37;;;;;;;1.31;100.00;97119.34;5055490;28;20277;-84
2022/01/20 04:38:43;;;;;;;21.70;13.07;;;;;;;1.20;100.00;97111.59;5039872;28;20198;-86
2022/01/20 04:41:10;;;;;;;20.13;12.53;;;;;;;1.15;100.00;97119.22;5060012;28;20228;-86
2022/01/20 04:43:38;;;;;;;20.47;11.97;;;;;;;1.16;100.00;97120.06;5058955;28;20206;-86
2022/01/20 04:46:12;;;;;;;19.93;12.20;;;;;;;1.16;100.00;97120.91;5052266;28;20202;-85
2022/01/20 04:49:00;;;;;;;19.37;12.30;;;;;;;1.11;100.00;97112.53;5055366;28;20202;-84
2022/01/20 04:57:07;;;;;;;19.40;11.27;;;;;;;1.17;100.00;97117.25;5048906;28;20210;-84
2022/01/20 04:59:35;;;;;;;23.30;11.40;;;;;;;1.22;100.00;97125.59;5056986;28;20220;-84
2022/01/20 05:02:04;;;;;;;18.13;10.80;;;;;;;1.22;100.00;97117.63;5052698;28;20214;-84
2022/01/20 05:04:55;;;;;;;18.20;11.00;;;;;;;1.26;100.00;97126.13;5032855;28;20215;-85
2022/01/20 05:07:43;;;;;;;17.47;9.90;;;;;;;1.31;100.00;97124.69;5057023;28;20210;-85
2022/01/20 05:10:13;;;;;;;22.87;10.10;;;;;;;1.32;100.00;97123.69;5055076;28;20243;-86
2022/01/20 05:13:03;;;;;;;18.60;9.83;;;;;;;1.31;100.00;97123.84;5056378;28;20230;-85
2022/01/20 05:15:33;;;;;;;16.73;9.93;;;;;;;1.37;100.00;97129.38;5056640;28;20209;-86
2022/01/20 05:18:02;;;;;;;18.93;10.43;;;;;;;1.33;100.00;97125.38;5040279;28;20268;-85
2022/01/20 05:20:30;;;;;;;19.17;9.53;;;;;;;1.32;100.00;97131.69;5041195;28;20517;-86
2022/01/20 05:22:58;;;;;;;16.93;10.10;;;;;;;1.38;100.00;97128.38;5056718;28;20206;-85
2022/01/20 05:25:28;;;;;;;18.27;10.97;;;;;;;1.37;100.00;97129.38;5037910;28;20343;-86
2022/01/20 05:27:55;;;;;;;17.20;10.53;;;;;;;1.44;100.00;97127.78;5053873;28;20263;-86
2022/01/20 05:30:23;;;;;;;21.93;9.70;;;;;;;1.40;100.00;97137.06;5045780;28;20324;-85
2022/01/20 05:33:21;;;;;;;19.40;9.73;;;;;;;1.39;100.00;97135.38;5036069;28;20240;-84
2022/01/20 05:35:48;;;;;;;15.57;10.20;;;;;;;1.35;100.00;97136.69;5055720;28;20214;-85
2022/01/20 05:38:15;;;;;;;15.17;9.33;;;;;;;1.40;100.00;97139.72;5042436;28;20197;-85
2022/01/20 05:40:46;;;;;;;16.97;10.00;;;;;;;1.34;100.00;97134.19;5036514;28;20473;-85
2022/01/20 05:43:14;;;;;;;21.03;10.77;;;;;;;1.30;100.00;97138.97;5059329;28;20217;-85
2022/01/20 05:45:43;;;;;;;19.77;11.33;;;;;;;1.38;100.00;97147.00;5045862;28;20198;-85
2022/01/20 05:48:15;;;;;;;19.70;10.73;;;;;;;1.36;100.00;97148.97;5041068;28;20297;-85
2022/01/20 05:50:44;;;;;;;21.63;10.73;;;;;;;1.34;100.00;97145.66;5035207;28;20267;-84
2022/01/20 05:53:12;;;;;;;17.07;10.80;;;;;;;1.43;100.00;97141.25;5040551;28;20229;-86
2022/01/20 05:55:40;;;;;;;17.90;10.43;;;;;;;1.43;100.00;97149.22;5038544;28;20213;-85
2022/01/20 05:58:08;;;;;;;16.07;10.73;;;;;;;1.45;100.00;97139.25;5058893;28;20280;-85
2022/01/20 06:00:38;;;;;;;18.47;11.47;;;;;;;1.43;100.00;97139.41;5036421;28;20211;-86
2022/01/20 06:05:52;;;;;;;18.40;10.97;;;;;;;1.43;100.00;97136.75;5057699;28;20229;-86
2022/01/20 06:08:20;;;;;;;17.83;10.57;;;;;;;1.45;100.00;97148.06;5044443;28;20210;-85
2022/01/20 06:10:48;;;;;;;16.40;9.93;;;;;;;1.41;100.00;97151.19;5062113;28;20237;-84
2022/01/20 06:13:22;;;;;;;17.73;10.20;;;;;;;1.42;100.00;97158.19;5059703;28;20275;-84
2022/01/20 06:15:49;;;;;;;20.57;11.37;;;;;;;1.41;100.00;97157.38;5053181;28;20242;-85
2022/01/20 06:18:17;;;;;;;21.37;12.30;;;;;;;1.49;100.00;97153.94;5058325;28;20226;-84
2022/01/20 06:20:58;;;;;;;20.77;12.47;;;;;;;1.41;100.00;97149.38;5040465;28;20217;-85
2022/01/20 06:23:28;;;;;;;20.07;12.03;;;;;;;1.36;100.00;97148.19;5061914;28;20211;-84
2022/01/20 06:25:56;;;;;;;20.97;12.53;;;;;;;1.41;100.00;97146.72;5047921;28;20276;-85
2022/01/20 06:28:23;;;;;;;24.27;12.63;;;;;;;1.39;100.00;97146.03;5044323;28;20205;-85
2022/01/20 06:30:51;;;;;;;21.00;12.00;;;;;;;1.39;100.00;97140.72;5055750;28;20209;-84
2022/01/20 06:33:18;;;;;;;20.00;12.00;;;;;;;1.37;100.00;97145.34;5038587;28;20222;-86
2022/01/20 06:35:52;;;;;;;21.90;12.30;;;;;;;1.38;100.00;97138.19;5062543;28;20214;-84
2022/01/20 06:38:21;;;;;;;22.40;12.37;;;;;;;1.35;100.00;97131.38;5057615;28;20206;-86
2022/01/20 06:40:48;;;;;;;26.27;13.30;;;;;;;1.36;100.00;97135.69;5040205;28;20301;-84
2022/01/20 06:43:15;;;;;;;25.50;13.53;;;;;;;1.38;100.00;97141.69;5033329;28;20274;-84
2022/01/20 06:45:43;;;;;;;23.93;12.77;;;;;;;1.34;100.00;97135.03;5042532;28;20213;-84
2022/01/20 06:48:14;;;;;;;22.33;13.07;;;;;;;1.31;100.00;97135.31;5051305;28;20222;-86
2022/01/20 06:50:59;;;;;;;22.63;12.93;;;;;;;1.32;100.00;97138.81;5059534;28;20311;-85
2022/01/20 06:53:27;;;;;;;23.20;12.70;;;;;;;1.30;100.00;97136.31;5062151;28;20230;-84
2022/01/20 06:55:54;;;;;;;22.53;13.10;;;;;;;1.30;100.00;97138.97;5045180;28;20210;-84
2022/01/20 06:58:23;;;;;;;23.07;12.47;;;;;;;1.34;100.00;97148.31;5056163;28;20233;-86
2022/01/20 07:00:50;;;;;;;23.10;13.00;;;;;;;1.31;100.00;97151.28;5058310;28;20216;-85
2022/01/20 07:03:17;;;;;;;20.33;11.93;;;;;;;1.32;100.00;97142.31;5035522;28;20202;-84
2022/01/20 07:05:44;;;;;;;18.57;11.70;;;;;;;1.30;100.00;97162.91;5045308;28;20256;-86
2022/01/20 07:08:12;;;;;;;21.10;11.97;;;;;;;1.23;100.00;97151.22;5043204;28;20269;-84
2022/01/20 07:10:42;;;;;;;20.00;12.03;;;;;;;1.24;100.00;97160.88;5042472;28;20228;-84
2022/01/20 07:13:10;;;;;;;22.43;12.60;;;;;;;1.24;100.00;97160.88;5048812;28;20213;-85
2022/01/20 07:15:37;;;;;;;21.17;13.10;;;;;;;1.24;100.00;97166.19;5041071;28;20203;-84
2022/01/20 07:18:05;;;;;;;22.33;12.43;;;;;;;1.27;100.00;97165.91;5058878;28;20224;-84
2022/01/20 07:20:32;;;;;;;20.97;13.33;;;;;;;1.27;100.00;97165.06;5046646;28;20281;-85
2022/01/20 07:23:19;;;;;;;27.90;14.97;;;;;;;1.30;100.00;97173.56;5046365;28;20220;-86
2022/01/20 07:25:56;;;;;;;23.20;13.93;;;;;;;1.28;100.00;97178.19;5056238;28;20204;-84
2022/01/20 07:28:23;;;;;;;22.80;14.07;;;;;;;1.25;100.00;97183.84;5047473;28;20205;-85
2022/01/20 07:30:51;;;;;;;26.70;14.00;;;;;;;1.27;100.00;97181.88;5044198;28;20204;-85
2022/01/20 07:33:19;;;;;;;21.30;13.40;;;;;;;1.29;100.00;97181.69;5056332;28;20270;-84
2022/01/20 07:35:47;;;;;;;19.47;12.20;;;;;;;1.29;100.00;97173.69;5059245;28;20248;-85
2022/01/20 07:38:17;;;;;;;22.00;13.10;;;;;;;1.31;100.00;97166.41;5054775;28;20294;-86
2022/01/20 07:40:44;;;;;;;24.40;14.77;;;;;;;1.28;100.00;97170.19;5062064;28;20214;-85
2022/01/20 07:43:13;;;;;;;20.87;13.17;;;;;;;1.26;100.00;97169.53;5039738;28;20206;-85
2022/01/20 07:45:48;;;;;;;22.93;13.67;;;;;;;1.27;100.00;97171.22;5054644;28;20220;-85
2022/01/20 07:48:30;;;;;;;27.43;14.13;;;;;;;1.29;100.00;97168.38;5046180;28;20299;-84
2022/01/20 07:51:06;;;;;;;34.40;16.03;;;;;;;1.20;100.00;97162.16;5037369;28;20216;-85
2022/01/20 07:53:35;;;;;;;29.40;15.77;;;;;;;1.21;100.00;97169.16;5061564;28;20234;-85
2022/01/20 07:56:03;;;;;;;30.53;15.47;;;;;;;1.23;100.00;97174.31;5042207;28;20206;-85
2022/01/20 07:58:32;;;;;;;28.90;15.23;;;;;;;1.23;100.00;97180.47;5038623;28;20206;-85
2022/01/20 08:01:00;;;;;;;21.87;15.03;;;;;;;1.23;100.00;97169.84;5052430;28;20384;-85
2022/01/20 08:03:28;;;;;;;29.57;15.63;;;;;;;1.24;100.00;97173.34;5045649;28;20205;-84
2022/01/20 08:06:08;;;;;;;28.07;15.77;;;;;;;1.27;100.00;97173.03;5043506;28;20237;-85
2022/01/20 08:08:38;;;;;;;30.80;17.27;;;;;;;1.28;100.00;97166.69;5040701;28;20236;-85
2022/01/20 08:11:29;;;;;;;29.53;17.10;;;;;;;1.25;100.00;97162.53;5047195;28;20505;-84
2022/01/20 08:14:07;;;;;;;28.10;15.90;;;;;;;1.30;100.00;97165.56;5063383;28;20259;-85
2022/01/20 08:16:35;;;;;;;28.30;16.00;;;;;;;1.30;100.00;97162.91;5037233;28;20201;-84
2022/01/20 08:19:03;;;;;;;24.40;15.27;;;;;;;1.36;100.00;97180.91;5044835;28;20259;-84
2022/01/20 08:21:30;;;;;;;30.80;15.97;;;;;;;1.33;100.00;97165.28;5064665;28;20209;-84
2022/01/20 08:23:58;;;;;;;29.47;17.27;;;;;;;1.39;100.00;97174.47;5063325;28;20213;-85
2022/01/20 08:26:25;;;;;;;30.73;17.40;;;;;;;1.42;100.00;97160.88;5057730;28;20241;-84
2022/01/20 08:28:53;;;;;;;28.00;16.80;;;;;;;1.38;100.00;97170.13;5041239;28;20206;-85
2022/01/20 08:31:21;;;;;;;30.87;16.30;;;;;;;1.41;100.00;97172.50;5055516;28;20194;-84
2022/01/20 08:33:48;;;;;;;27.00;16.87;;;;;;;1.39;100.00;97169.97;5047580;28;20224;-86
2022/01/20 08:36:22;;;;;;;29.63;16.37;;;;;;;1.41;100.00;97170.66;5062867;28;20223;-85
2022/01/20 08:38:53;;;;;;;31.57;16.67;;;;;;;1.39;100.00;97169.13;5040511;28;20212;-86
2022/01/20 08:41:21;;;;;;;28.77;17.07;;;;;;;1.43;100.00;97176.69;5063262;28;20220;-84
2022/01/20 08:43:48;;;;;;;32.23;17.90;;;;;;;1.37;100.00;97161.31;5035861;28;20206;-84
2022/01/20 08:46:19;;;;;;;31.17;17.43;;;;;;;1.38;100.00;97168.31;5057320;28;20209;-85
2022/01/20 08:48:48;;;;;;;31.37;17.13;;;;;;;1.46;100.00;97171.03;5043760;28;20200;-85
2022/01/20 08:51:22;;;;;;;37.97;18.77;;;;;;;1.46;100.00;97181.69;5045978;28;20204;-84
2022/01/20 08:54:08;;;;;;;31.80;17.47;;;;;;;1.47;100.00;97182.50;5040093;28;20302;-85
2022/01/20 08:56:36;;;;;;;29.07;16.33;;;;;;;1.54;100.00;97178.25;5037041;28;20197;-85
2022/01/20 08:59:05;;;;;;;32.17;17.07;;;;;;;1.53;100.00;97182.72;5061215;28;20216;-83
2022/01/20 09:01:34;;;;;;;30.90;17.83;;;;;;;1.56;100.00;97183.41;5054545;28;20440;-84
2022/01/20 09:04:03;;;;;;;27.00;15.83;;;;;;;1.64;100.00;97192.31;5063669;28;20208;-83
2022/01/20 09:06:31;;;;;;;25.00;15.93;;;;;;;1.66;100.00;97189.50;5056076;28;20237;-82
2022/01/20 09:09:09;;;;;;;39.87;21.87;;;;;;;1.68;100.00;97200.84;5037232;28;20202;-84
2022/01/20 09:11:50;;;;;;;29.93;17.80;;;;;;;1.65;100.00;97201.13;5044360;28;20211;-84
2022/01/20 09:17:02;;;;;;;29.47;17.00;;;;;;;1.64;100.00;97221.59;5038765;28;20263;-83
2022/01/20 09:19:33;;;;;;;31.60;17.80;;;;;;;1.67;100.00;97221.28;5045552;28;20219;-84
2022/01/20 09:22:04;;;;;;;28.80;16.67;;;;;;;1.73;100.00;97228.66;5040963;28;20537;-84
2022/01/20 09:24:32;;;;;;;27.60;16.27;;;;;;;1.77;100.00;97227.38;5066567;28;20208;-83
2022/01/20 09:27:02;;;;;;;27.70;15.70;;;;;;;1.83;100.00;97216.09;5052381;28;20292;-84
2022/01/20 09:29:29;;;;;;;27.93;15.93;;;;;;;1.87;100.00;97212.13;5053011;28;20229;-84
2022/01/20 09:31:56;;;;;;;26.43;15.17;;;;;;;1.91;100.00;97210.00;5055981;28;20212;-84
2022/01/20 09:34:28;;;;;;;23.50;14.73;;;;;;;1.92;100.00;97203.69;5045289;28;20220;-84
2022/01/20 09:36:57;;;;;;;26.27;15.10;;;;;;;1.89;100.00;97198.66;5049849;28;20317;-84
2022/01/20 09:39:24;;;;;;;29.23;16.27;;;;;;;1.89;100.00;97210.16;5042766;28;20287;-84
2022/01/20 09:42:14;;;;;;;30.63;15.17;;;;;;;1.89;100.00;97188.00;5056572;28;20205;-86
2022/01/20 09:44:45;;;;;;;25.57;15.57;;;;;;;1.95;100.00;97190.06;5063337;28;20205;-84
2022/01/20 09:47:17;;;;;;;35.80;20.90;;;;;;;2.01;100.00;97194.75;5047875;28;20238;-83
2022/01/20 09:49:56;;;;;;;32.67;17.40;;;;;;;2.02;100.00;97199.09;5060039;28;20300;-84
2022/01/20 09:52:45;;;;;;;27.63;15.87;;;;;;;2.04;100.00;97196.28;5054365;28;20218;-84
2022/01/20 09:55:35;;;;;;;22.53;14.33;;;;;;;2.07;100.00;97203.94;5045415;28;20241;-83
2022/01/20 09:58:05;;;;;;;17.60;11.80;;;;;;;2.02;100.00;97199.09;5048788;28;20216;-85
2022/01/20 10:00:32;;;;;;;20.53;11.70;;;;;;;2.13;100.00;97205.97;5046535;28;20238;-84
2022/01/20 10:03:05;;;;;;;19.07;11.63;;;;;;;2.17;100.00;97212.66;5061018;28;20209;-85
2022/01/20 10:05:36;;;;;;;14.63;8.67;;;;;;;2.28;100.00;97207.09;5058653;28;20206;-84
2022/01/20 10:08:14;;;;;;;16.00;8.67;;;;;;;2.30;100.00;97213.06;5064570;28;20395;-83
2022/01/20 10:10:55;;;;;;;12.63;8.07;;;;;;;2.31;100.00;97222.75;5059559;28;20229;-84
2022/01/20 10:13:46;;;;;;;11.43;7.53;;;;;;;2.26;100.00;97230.38;5035424;28;20214;-84
2022/01/20 10:16:39;;;;;;;11.80;7.67;;;;;;;2.23;100.00;97254.66;5059383;28;20300;-85
2022/01/20 10:19:28;;;;;;;14.50;7.47;;;;;;;2.24;100.00;97257.19;5047791;28;20210;-84
2022/01/20 10:22:00;;;;;;;10.73;7.13;;;;;;;2.17;100.00;97250.81;5056422;28;20287;-84
2022/01/20 10:25:02;;;;;;;11.00;6.97;;;;;;;2.20;100.00;97263.00;5059503;28;20248;-84
2022/01/20 10:27:52;;;;;;;11.37;7.03;;;;;;;2.20;100.00;97257.66;5060800;28;20256;-84
2022/01/20 10:30:21;;;;;;;12.00;7.60;;;;;;;2.18;100.00;97257.81;5061718;28;20225;-84
2022/01/20 10:32:50;;;;;;;10.40;6.50;;;;;;;2.20;100.00;97258.50;5048315;28;20221;-84
2022/01/20 10:35:19;;;;;;;9.27;6.50;;;;;;;2.19;100.00;97254.16;5062021;28;20213;-84
2022/01/20 10:38:00;;;;;;;9.50;6.17;;;;;;;2.17;100.00;97256.13;5063046;28;20229;-84
2022/01/20 10:40:46;;;;;;;9.20;6.20;;;;;;;2.20;100.00;97249.66;5040501;28;20228;-84
2022/01/20 10:43:20;;;;;;;10.30;6.90;;;;;;;2.22;100.00;97242.34;5049959;28;20269;-86
2022/01/20 10:45:47;;;;;;;10.93;6.67;;;;;;;2.21;100.00;97241.50;5043080;28;20205;-84
2022/01/20 10:48:19;;;;;;;11.53;7.10;;;;;;;2.23;100.00;97236.84;5040699;28;20202;-84
2022/01/20 10:50:47;;;;;;;10.60;7.07;;;;;;;2.27;100.00;97240.88;5066050;28;20295;-84
2022/01/20 10:53:18;;;;;;;13.33;6.40;;;;;;;2.26;100.00;97228.56;5057870;28;20198;-84
2022/01/20 10:55:47;;;;;;;13.37;6.77;;;;;;;2.31;100.00;97224.56;5036822;28;20226;-85
2022/01/20 10:58:22;;;;;;;10.53;6.80;;;;;;;2.26;100.00;97220.56;5041934;28;20218;-85
2022/01/20 11:00:53;;;;;;;11.40;6.33;;;;;;;2.27;100.00;97216.91;5064564;28;20279;-84
2022/01/20 11:03:22;;;;;;;9.23;6.90;;;;;;;2.32;100.00;97212.91;5063372;28;20198;-85
2022/01/20 11:05:51;;;;;;;11.73;6.83;;;;;;;2.27;100.00;97208.06;5053111;28;20224;-85
2022/01/20 11:08:40;;;;;;;10.07;6.93;;;;;;;2.33;100.00;97196.78;5052839;28;20201;-85
2022/01/20 11:11:09;;;;;;;9.40;6.93;;;;;;;2.33;100.00;97203.94;5059651;28;20237;-83
2022/01/20 11:13:47;;;;;;;11.47;7.40;;;;;;;2.34;100.00;97197.59;5033481;28;20260;-84
2022/01/20 11:16:14;;;;;;;10.40;7.10;;;;;;;2.31;100.00;97192.59;5047896;28;20317;-85
2022/01/20 11:18:42;;;;;;;8.97;6.30;;;;;;;2.37;100.00;97194.63;5050722;28;20217;-84
2022/01/20 11:21:10;;;;;;;12.73;6.77;;;;;;;2.40;100.00;97183.63;5047313;28;20201;-85
2022/01/20 11:23:42;;;;;;;8.27;5.67;;;;;;;2.47;100.00;97184.66;5050204;28;20289;-84
2022/01/20 11:26:29;;;;;;;7.47;5.83;;;;;;;2.48;100.00;97176.50;5060862;28;20275;-85
2022/01/20 11:29:08;;;;;;;9.47;5.53;;;;;;;2.50;100.00;97189.69;5054144;28;20205;-85
2022/01/20 11:32:00;;;;;;;5.97;4.70;;;;;;;2.62;100.00;97181.25;5044226;28;20359;-84
2022/01/20 11:34:37;;;;;;;6.83;4.80;;;;;;;2.61;100.00;97179.59;5048712;28;20204;-84
2022/01/20 11:37:08;;;;;;;7.27;5.40;;;;;;;2.59;100.00;97180.75;5064957;28;20217;-84
2022/01/20 11:39:35;;;;;;;6.87;4.70;;;;;;;2.66;100.00;97173.75;5042657;28;20206;-85
2022/01/20 11:42:04;;;;;;;6.50;5.07;;;;;;;2.65;100.00;97167.59;5063798;28;20255;-84
2022/01/20 11:44:32;;;;;;;7.90;4.77;;;;;;;2.66;100.00;97160.44;5064359;28;20221;-85
2022/01/20 11:47:07;;;;;;;7.40;4.83;;;;;;;2.67;100.00;97156.78;5044202;28;20297;-84
2022/01/20 11:49:36;;;;;;;7.83;5.07;;;;;;;2.66;100.00;97147.94;5047342;28;20209;-84
2022/01/20 11:52:04;;;;;;;6.17;4.90;;;;;;;2.66;100.00;97153.25;5068537;28;20212;-85
2022/01/20 11:54:33;;;;;;;7.47;4.60;;;;;;;2.69;100.00;97154.78;5041418;28;20201;-84
2022/01/20 11:57:11;;;;;;;5.63;4.53;;;;;;;2.71;100.00;97149.28;5045742;28;20272;-85
2022/01/20 11:59:41;;;;;;;6.40;4.33;;;;;;;2.72;100.00;97143.81;5042667;28;20231;-83
2022/01/20 12:02:09;;;;;;;6.80;4.27;;;;;;;2.66;100.00;97149.75;5039365;28;20289;-85
2022/01/20 12:04:38;;;;;;;5.47;4.27;;;;;;;2.69;100.00;97160.13;5036345;28;20277;-85
2022/01/20 12:07:25;;;;;;;6.77;4.73;;;;;;;2.67;100.00;97162.94;5070203;28;20239;-83
2022/01/20 12:09:52;;;;;;;7.27;4.40;;;;;;;2.75;100.00;97162.13;5060911;28;20244;-85
2022/01/20 12:12:26;;;;;;;6.37;4.67;;;;;;;2.76;100.00;97150.47;5061207;28;20221;-84
2022/01/20 12:14:53;;;;;;;5.07;4.37;;;;;;;2.78;100.00;97145.81;5066387;28;20210;-84
2022/01/20 12:17:21;;;;;;;3.93;3.33;;;;;;;2.76;100.00;97136.28;5035195;28;20281;-84
2022/01/20 12:19:54;;;;;;;4.40;3.77;;;;;;;2.81;100.00;97137.47;5065657;28;20252;-85
2022/01/20 12:22:21;;;;;;;4.93;3.60;;;;;;;2.76;100.00;97110.47;5041800;28;20206;-85
2022/01/20 12:24:53;;;;;;;6.33;4.00;;;;;;;2.85;100.00;97122.81;5063139;28;20193;-85